• Join FlightAware (Why Join?)
  • Login
  • US Flag 
09:59PM EDT


 

Airport Tracker/Info


-or-


 

Live Flight TrackerFlight Track Log ✈ ASQ6115 ✈ 09-Jun-2013 ✈ KIAH - KMFE

Flight Track Log - Related Links

Times and Time Zones

All times are in EDT time to prevent confusion due to time zone crossing. See the ASQ6115 flight status page for this flight to view local times or setup timezone preferences in your user account.

Time Position Orientation Groundspeed Altitude Reporting Facility
EDT Latitude Longitude Course Direction KTS MPH feet Rate Location/Type
08:22AM 29.9683 -95.3475 190° South 153 176 600  Level Houston Center
08:23AM 29.9317 -95.2894 126° Southeast 228 262 3,300 2,460 Climbing Houston Center
08:24AM 29.8919 -95.2242 125° Southeast 241 277 6,100 2,580 Climbing Houston Center
08:25AM 29.8461 -95.1536 127° Southeast 268 308 8,800 2,640 Climbing Houston Center
08:26AM 29.5784 -95.4140 191° South  Level FlightAware Approximate
08:26AM 29.7778 -95.1200 157° South 285 328 11,500  Level Houston Center
08:27AM 29.4773 -95.4346 190° South  Level FlightAware Approximate
08:27AM 29.6997 -95.1550 201° Southwest 306 352 13,000  Level Houston Center
08:28AM 29.6217 -95.1931 203° Southwest 323 372 15,100 2,580 Climbing Houston Center
08:29AM 29.5197 -95.2397 202° Southwest 331 381 18,300 2,160 Climbing Houston Center
08:30AM 29.4339 -95.2800 202° Southwest 333 383 19,500 960 Climbing Houston Center
08:31AM 29.3386 -95.3250 202° Southwest 364 419 20,300 780 Climbing Houston Center
08:32AM 29.2344 -95.3736 202° Southwest 398 458 21,200 1,020 Climbing Houston Center
08:33AM 29.1297 -95.4231 202° Southwest 407 468 22,400 1,080 Climbing Houston Center
08:34AM 29.0236 -95.4722 202° Southwest 410 472 23,400 1,080 Climbing Houston Center
08:35AM 28.9167 -95.5219 202° Southwest 414 476 24,700 1,200 Climbing Houston Center
08:37AM 28.8106 -95.5767 204° Southwest 420 483 25,900 1,140 Climbing Houston Center
08:38AM 28.7253 -95.6669 223° Southwest 416 479 27,100 1,020 Climbing Houston Center
08:39AM 28.6389 -95.7572 223° Southwest 420 483 28,000 420 Climbing Houston Center
08:40AM 28.5325 -95.8669 222° Southwest 431 496 28,000  Level Houston Center
08:41AM 28.4414 -95.9628 223° Southwest 445 512 28,000  Level Houston Center
08:42AM 28.3608 -96.0453 222° Southwest 453 521 28,000  Level Houston Center
08:43AM 28.2478 -96.1617 222° Southwest 457 526 28,000  Level Houston Center
08:44AM 28.1525 -96.2603 222° Southwest 461 531 28,000  Level Houston Center
08:45AM 28.0594 -96.3542 222° Southwest 450 518 28,000  Level Houston Center
08:46AM 27.9672 -96.4500 223° Southwest 449 517 28,000  Level Houston Center
08:47AM 27.8769 -96.5419 222° Southwest 441 507 28,000  Level Houston Center
08:48AM 27.7875 -96.6331 222° Southwest 434 499 28,000  Level Houston Center
08:49AM 27.6972 -96.7242 222° Southwest 435 501 28,000  Level Houston Center
08:50AM 27.6072 -96.8153 222° Southwest 434 499 28,000  Level Houston Center
08:51AM 27.5181 -96.9061 222° Southwest 433 498 28,000  Level Houston Center
08:52AM 27.4164 -97.0075 222° Southwest 429 494 28,000  Level Houston Center
08:53AM 27.3261 -97.1000 222° Southwest 434 499 28,000  Level Houston Center
08:54AM 27.2322 -97.1931 221° Southwest 443 510 28,000 -840 Level Houston Center
08:55AM 27.1375 -97.2878 222° Southwest 452 520 26,300 -2,100 Descending Houston Center
08:56AM 27.0428 -97.3822 222° Southwest 454 522 23,800 -2,700 Descending Houston Center
08:56AM 26.9994 -97.4269 223° Southwest 445 512 22,600 -2,640 Descending Houston Center
08:57AM 26.9764 -97.4489 220° Southwest 432 497 22,000 -2,580 Descending Houston Center
08:57AM 26.9442 -97.4817 222° Southwest 422 486 21,000 -2,700 Descending Houston Center
08:58AM 26.8892 -97.5358 221° Southwest 395 455 19,300 -2,460 Descending Houston Center
08:58AM 26.8611 -97.5622 220° Southwest 406 467 18,500 -2,700 Descending Houston Center
08:59AM 26.8114 -97.6333 232° Southwest 418 481 16,600 -2,700 Descending Houston Center
08:59AM 26.7922 -97.6608 232° Southwest 405 466 15,800 -2,460 Descending Houston Center
09:00AM 26.7464 -97.7333 235° Southwest 406 467 14,100 -2,460 Descending Houston Center
09:00AM 26.7278 -97.7614 233° Southwest 381 438 13,300 -2,280 Descending Houston Center
09:01AM 26.6850 -97.8283 234° Southwest 382 440 11,800 -2,280 Descending Houston Center
09:01AM 26.6647 -97.8586 233° Southwest 365 420 11,000 -1,500 Descending Houston Center
09:02AM 26.6325 -97.9078 234° Southwest 310 357 10,300 -1,140 Descending Houston Center
09:02AM 26.6156 -97.9339 234° Southwest 314 361 9,900 -1,200 Descending Houston Center
09:03AM 26.5853 -97.9772 232° Southwest 283 326 9,100 -1,320 Descending Houston Center
09:03AM 26.5692 -98.0047 237° Southwest 288 331 8,600 -1,200 Descending Houston Center
09:04AM 26.5403 -98.0486 234° Southwest 282 325 7,900 -1,380 Descending Houston Center
09:04AM 26.5197 -98.0811 235° Southwest 283 326 7,200 -1,620 Descending Houston Center
09:05AM 26.4914 -98.1228 233° Southwest 280 322 6,300 -1,500 Descending Houston Center
09:05AM 26.4761 -98.1489 237° Southwest 274 315 5,700 -1,500 Descending Houston Center
09:06AM 26.4475 -98.1869 230° Southwest 263 303 4,800 -1,500 Descending Houston Center
09:06AM 26.4342 -98.2128 240° Southwest 261 300 4,200 -1,620 Descending Houston Center
09:07AM 26.4081 -98.2506 232° Southwest 246 283 3,200 -1,380 Descending Houston Center
09:07AM 26.3947 -98.2717 235° Southwest 243 280 2,800 -1,020 Descending Houston Center
09:08AM 26.3508 -98.3092 217° Southwest 230 265 2,000 -480 Descending Houston Center
09:09AM 26.3042 -98.3244 196° South 205 236 2,000  Level Houston Center
09:09AM 26.2850 -98.3239 179° South 202 232 2,000  Level Houston Center